Aniara — SKJC — position and weather

sailwx.info

Track history (hours):
 
Tides and Currents Weather Stations Pressure Air Temp Water Temp Dewpoint Dewpoint Depression Visibility Wind Speed Wind Dir Waves Ship Positions

Aniara

Last reported at 2015-Jul-22 17:33 UTC. Time now 2015-Aug-03 23:22 UTC.
Position N 29°20' W 094°46'.
Warning: this ship's position is 12 days out of date.

Length 232 m; draft 10 m.

Type: Cargo ship. MMSI: 266282000.

Date/timePositionNaut miles runAvg speedWind from/ knotsBaromVisibWave heightAir tempDewpointWater temp
2015-Jul-22 17:33N 29°20' W 094°46'  
2015-Jul-20 02:04N 25°21' W 080°02'816.0
2015-Jul-20 01:34N 25°29' W 080°02'1615.6
2015-Jul-20 00:33N 25°45' W 080°00'1515.1
2015-Jul-19 23:34N 25°60' W 079°59'1515.2
2015-Jul-19 22:34N 26°15' W 079°58'1515.3
2015-Jul-19 21:33N 26°30' W 079°55'1515.1
2015-Jul-19 20:33N 26°45' W 079°53'1515.0
2015-Jul-19 19:33N 26°60' W 079°53'29815.7
2015-Jul-19 00:33N 31°56' W 080°38'1413.9
2015-Jul-18 23:33N 32°02' W 080°53'9 9.2
2015-Jul-18 22:34N 32°05' W 081°03'3 2.6
2015-Jul-18 21:34N 32°05' W 081°06'0 0.0
2015-Jul-18 20:33N 32°05' W 081°06'0 0.0
2015-Jul-18 19:33N 32°05' W 081°06'0 0.0
2015-Jul-18 18:33N 32°05' W 081°06'0 0.0
2015-Jul-18 17:34N 32°05' W 081°06'0 0.0
2015-Jul-18 16:33N 32°05' W 081°06'0 0.0
2015-Jul-18 15:34N 32°05' W 081°06'0 0.0
2015-Jul-18 14:33N 32°05' W 081°06'0 0.0
2015-Jul-18 13:34N 32°05' W 081°06'0 0.0
2015-Jul-18 12:34N 32°05' W 081°06'0 0.0
2015-Jul-18 11:34N 32°05' W 081°06'0 0.0
2015-Jul-18 10:33N 32°05' W 081°06'0 0.0
2015-Jul-18 09:33N 32°05' W 081°06'0 0.0
2015-Jul-18 08:33N 32°05' W 081°06'0 0.0
2015-Jul-18 07:33N 32°05' W 081°06'0 0.0
2015-Jul-18 06:33N 32°05' W 081°06'0 0.0
2015-Jul-18 05:33N 32°05' W 081°06'3 3.1
2015-Jul-18 04:34N 32°08' W 081°08'5 5.4
2015-Jul-18 03:34N 32°05' W 081°03'10 9.7
2015-Jul-18 02:33N 32°02' W 080°52'1010.1
2015-Jul-18 01:33N 31°58' W 080°41'12 2.3
2015-Jul-17 20:33N 31°58' W 080°27'41611.4
2015-Jul-16 08:04N 37°57' W 076°12'1018.2
2015-Jul-16 07:31N 38°07' W 076°14'5316.5
2015-Jul-16 04:18N 38°60' W 076°23'1115.3
2015-Jul-16 03:33N 39°11' W 076°26'8 8.0
2015-Jul-16 02:34N 39°15' W 076°35'0 0.0
2015-Jul-16 01:32N 39°15' W 076°35'0 0.0
2015-Jul-16 00:32N 39°15' W 076°35'0 0.0
2015-Jul-15 23:32N 39°15' W 076°35'0 0.0
2015-Jul-15 22:32N 39°15' W 076°35'0 0.0
2015-Jul-15 21:32N 39°15' W 076°35'0 0.0
2015-Jul-15 20:32N 39°15' W 076°35'0 0.0
2015-Jul-15 19:32N 39°15' W 076°35'0 0.0
2015-Jul-15 18:32N 39°15' W 076°35'0 0.0
2015-Jul-15 17:32N 39°15' W 076°35'0 0.0
2015-Jul-15 16:32N 39°15' W 076°35'0 0.0
2015-Jul-15 15:32N 39°15' W 076°35'0 0.0
2015-Jul-15 14:32N 39°15' W 076°35'0 0.0
2015-Jul-15 13:32N 39°15' W 076°35'0 0.0
2015-Jul-15 12:32N 39°15' W 076°35'0 0.0
2015-Jul-15 11:32N 39°15' W 076°35'0 0.0
2015-Jul-15 10:32N 39°15' W 076°35'0 0.0
2015-Jul-15 09:32N 39°15' W 076°35'0 0.0
2015-Jul-15 08:32N 39°15' W 076°35'0 0.0
2015-Jul-15 07:32N 39°15' W 076°35'0 0.0
2015-Jul-15 06:32N 39°15' W 076°35'0 0.0
2015-Jul-15 05:32N 39°15' W 076°35'0 0.0
2015-Jul-15 04:32N 39°15' W 076°35'0 0.0
2015-Jul-15 03:33N 39°15' W 076°35'2 1.8
2015-Jul-15 02:32N 39°15' W 076°32'0 0.1
2015-Jul-15 01:26N 39°15' W 076°32'0 0.0
2015-Jul-14 20:11N 39°15' W 076°32'0 0.0
2015-Jul-14 18:14N 39°15' W 076°32'0 0.0
2015-Jul-14 16:32N 39°15' W 076°32'0 0.0
2015-Jul-14 13:26N 39°15' W 076°32'0 0.0
2015-Jul-14 12:26N 39°15' W 076°32'0 0.0
2015-Jul-14 10:32N 39°15' W 076°32'0 0.0
2015-Jul-14 09:32N 39°15' W 076°32'0 0.0
2015-Jul-14 08:20N 39°15' W 076°32'0 0.0
2015-Jul-14 07:32N 39°15' W 076°32'0 0.0
2015-Jul-14 06:23N 39°15' W 076°32'0 0.0
2015-Jul-14 05:26N 39°15' W 076°32'0 0.0
2015-Jul-14 04:26N 39°15' W 076°32'0 0.0
2015-Jul-14 03:29N 39°15' W 076°32'0 0.0
2015-Jul-14 02:29N 39°15' W 076°32'0 0.0
2015-Jul-14 01:14N 39°15' W 076°32'0 0.0
2015-Jul-14 00:26N 39°15' W 076°32'0 0.0
2015-Jul-13 23:32N 39°15' W 076°32'0 0.0
2015-Jul-13 20:08N 39°15' W 076°32'0 0.0
2015-Jul-13 14:32N 39°15' W 076°32'0 0.0
2015-Jul-13 12:32N 39°15' W 076°32'0 0.0
2015-Jul-13 11:34N 39°15' W 076°32'5 5.3
2015-Jul-13 10:34N 39°11' W 076°27'1414.0
2015-Jul-13 09:31N 38°57' W 076°23'1918.6
2015-Jul-13 08:31N 38°38' W 076°25'3916.8
2015-Jul-13 06:12N 38°01' W 076°12'3417.1
2015-Jul-13 04:13N 37°27' W 076°04'  
Track history (hours):
 
Tides and Currents Weather Stations Pressure Air Temp Water Temp Dewpoint Dewpoint Depression Visibility Wind Speed Wind Dir Waves Ship Positions

Aniara

Last reported at 2015-Jul-22 17:33 UTC. Time now 2015-Aug-03 23:22 UTC.
Position N 29°20' W 094°46'.
Warning: this ship's position is 12 days out of date.

Length 232 m; draft 10 m.

Type: Cargo ship. MMSI: 266282000.

Date/timePositionNaut miles runAvg speedWind from/ knotsBaromVisibWave heightAir tempDewpointWater temp
2015-Jul-22 17:33N 29°20' W 094°46'  
2015-Jul-20 02:04N 25°21' W 080°02'816.0
2015-Jul-20 01:34N 25°29' W 080°02'1615.6
2015-Jul-20 00:33N 25°45' W 080°00'1515.1
2015-Jul-19 23:34N 25°60' W 079°59'1515.2
2015-Jul-19 22:34N 26°15' W 079°58'1515.3
2015-Jul-19 21:33N 26°30' W 079°55'1515.1
2015-Jul-19 20:33N 26°45' W 079°53'1515.0
2015-Jul-19 19:33N 26°60' W 079°53'29815.7
2015-Jul-19 00:33N 31°56' W 080°38'1413.9
2015-Jul-18 23:33N 32°02' W 080°53'9 9.2
2015-Jul-18 22:34N 32°05' W 081°03'3 2.6
2015-Jul-18 21:34N 32°05' W 081°06'0 0.0
2015-Jul-18 20:33N 32°05' W 081°06'0 0.0
2015-Jul-18 19:33N 32°05' W 081°06'0 0.0
2015-Jul-18 18:33N 32°05' W 081°06'0 0.0
2015-Jul-18 17:34N 32°05' W 081°06'0 0.0
2015-Jul-18 16:33N 32°05' W 081°06'0 0.0
2015-Jul-18 15:34N 32°05' W 081°06'0 0.0
2015-Jul-18 14:33N 32°05' W 081°06'0 0.0
2015-Jul-18 13:34N 32°05' W 081°06'0 0.0
2015-Jul-18 12:34N 32°05' W 081°06'0 0.0
2015-Jul-18 11:34N 32°05' W 081°06'0 0.0
2015-Jul-18 10:33N 32°05' W 081°06'0 0.0
2015-Jul-18 09:33N 32°05' W 081°06'0 0.0
2015-Jul-18 08:33N 32°05' W 081°06'0 0.0
2015-Jul-18 07:33N 32°05' W 081°06'0 0.0
2015-Jul-18 06:33N 32°05' W 081°06'0 0.0
2015-Jul-18 05:33N 32°05' W 081°06'3 3.1
2015-Jul-18 04:34N 32°08' W 081°08'5 5.4
2015-Jul-18 03:34N 32°05' W 081°03'10 9.7
2015-Jul-18 02:33N 32°02' W 080°52'1010.1
2015-Jul-18 01:33N 31°58' W 080°41'12 2.3
2015-Jul-17 20:33N 31°58' W 080°27'41611.4
2015-Jul-16 08:04N 37°57' W 076°12'1018.2
2015-Jul-16 07:31N 38°07' W 076°14'5316.5
2015-Jul-16 04:18N 38°60' W 076°23'1115.3
2015-Jul-16 03:33N 39°11' W 076°26'8 8.0
2015-Jul-16 02:34N 39°15' W 076°35'0 0.0
2015-Jul-16 01:32N 39°15' W 076°35'0 0.0
2015-Jul-16 00:32N 39°15' W 076°35'0 0.0
2015-Jul-15 23:32N 39°15' W 076°35'0 0.0
2015-Jul-15 22:32N 39°15' W 076°35'0 0.0
2015-Jul-15 21:32N 39°15' W 076°35'0 0.0
2015-Jul-15 20:32N 39°15' W 076°35'0 0.0
2015-Jul-15 19:32N 39°15' W 076°35'0 0.0
2015-Jul-15 18:32N 39°15' W 076°35'0 0.0
2015-Jul-15 17:32N 39°15' W 076°35'0 0.0
2015-Jul-15 16:32N 39°15' W 076°35'0 0.0
2015-Jul-15 15:32N 39°15' W 076°35'0 0.0
2015-Jul-15 14:32N 39°15' W 076°35'0 0.0
2015-Jul-15 13:32N 39°15' W 076°35'0 0.0
2015-Jul-15 12:32N 39°15' W 076°35'0 0.0
2015-Jul-15 11:32N 39°15' W 076°35'0 0.0
2015-Jul-15 10:32N 39°15' W 076°35'0 0.0
2015-Jul-15 09:32N 39°15' W 076°35'0 0.0
2015-Jul-15 08:32N 39°15' W 076°35'0 0.0
2015-Jul-15 07:32N 39°15' W 076°35'0 0.0
2015-Jul-15 06:32N 39°15' W 076°35'0 0.0
2015-Jul-15 05:32N 39°15' W 076°35'0 0.0
2015-Jul-15 04:32N 39°15' W 076°35'0 0.0
2015-Jul-15 03:33N 39°15' W 076°35'2 1.8
2015-Jul-15 02:32N 39°15' W 076°32'0 0.1
2015-Jul-15 01:26N 39°15' W 076°32'0 0.0
2015-Jul-14 20:11N 39°15' W 076°32'0 0.0
2015-Jul-14 18:14N 39°15' W 076°32'0 0.0
2015-Jul-14 16:32N 39°15' W 076°32'0 0.0
2015-Jul-14 13:26N 39°15' W 076°32'0 0.0
2015-Jul-14 12:26N 39°15' W 076°32'0 0.0
2015-Jul-14 10:32N 39°15' W 076°32'0 0.0
2015-Jul-14 09:32N 39°15' W 076°32'0 0.0
2015-Jul-14 08:20N 39°15' W 076°32'0 0.0
2015-Jul-14 07:32N 39°15' W 076°32'0 0.0
2015-Jul-14 06:23N 39°15' W 076°32'0 0.0
2015-Jul-14 05:26N 39°15' W 076°32'0 0.0
2015-Jul-14 04:26N 39°15' W 076°32'0 0.0
2015-Jul-14 03:29N 39°15' W 076°32'0 0.0
2015-Jul-14 02:29N 39°15' W 076°32'0 0.0
2015-Jul-14 01:14N 39°15' W 076°32'0 0.0
2015-Jul-14 00:26N 39°15' W 076°32'0 0.0
2015-Jul-13 23:32N 39°15' W 076°32'0 0.0
2015-Jul-13 20:08N 39°15' W 076°32'0 0.0
2015-Jul-13 14:32N 39°15' W 076°32'0 0.0
2015-Jul-13 12:32N 39°15' W 076°32'0 0.0
2015-Jul-13 11:34N 39°15' W 076°32'5 5.3
2015-Jul-13 10:34N 39°11' W 076°27'1414.0
2015-Jul-13 09:31N 38°57' W 076°23'1918.6
2015-Jul-13 08:31N 38°38' W 076°25'3916.8
2015-Jul-13 06:12N 38°01' W 076°12'3417.1
2015-Jul-13 04:13N 37°27' W 076°04'  

Dump ship's entire track history